sensor_id;sensor_type;location;lat;lon;timestamp;temperature;humidity
9802;DHT22;4940;50.900;4.672;2023-07-24T00:01:18;18.40;99.90
9802;DHT22;4940;50.900;4.672;2023-07-24T00:03:46;18.40;99.90
9802;DHT22;4940;50.900;4.672;2023-07-24T00:06:13;18.40;99.90
9802;DHT22;4940;50.900;4.672;2023-07-24T00:08:42;18.40;99.90
9802;DHT22;4940;50.900;4.672;2023-07-24T00:11:09;18.40;99.90
9802;DHT22;4940;50.900;4.672;2023-07-24T00:13:36;18.40;99.90
9802;DHT22;4940;50.900;4.672;2023-07-24T00:16:07;18.50;99.90
9802;DHT22;4940;50.900;4.672;2023-07-24T00:18:34;18.50;99.90
9802;DHT22;4940;50.900;4.672;2023-07-24T00:21:01;18.50;99.90
9802;DHT22;4940;50.900;4.672;2023-07-24T00:23:29;18.50;99.90
9802;DHT22;4940;50.900;4.672;2023-07-24T00:25:57;18.60;99.90
9802;DHT22;4940;50.900;4.672;2023-07-24T00:28:25;18.60;99.90
9802;DHT22;4940;50.900;4.672;2023-07-24T00:30:52;18.60;99.90
9802;DHT22;4940;50.900;4.672;2023-07-24T00:33:19;18.60;99.90
9802;DHT22;4940;50.900;4.672;2023-07-24T00:35:47;18.60;99.90
9802;DHT22;4940;50.900;4.672;2023-07-24T00:38:14;18.70;99.90
9802;DHT22;4940;50.900;4.672;2023-07-24T00:40:41;18.70;99.90
9802;DHT22;4940;50.900;4.672;2023-07-24T00:43:10;18.90;99.90
9802;DHT22;4940;50.900;4.672;2023-07-24T00:48:05;18.70;99.90
9802;DHT22;4940;50.900;4.672;2023-07-24T00:50:33;18.70;99.90
9802;DHT22;4940;50.900;4.672;2023-07-24T00:53:00;18.70;99.90
9802;DHT22;4940;50.900;4.672;2023-07-24T00:55:27;18.70;99.90
9802;DHT22;4940;50.900;4.672;2023-07-24T00:57:56;18.70;99.90
9802;DHT22;4940;50.900;4.672;2023-07-24T01:00:26;18.70;99.90
9802;DHT22;4940;50.900;4.672;2023-07-24T01:02:54;18.80;99.90
9802;DHT22;4940;50.900;4.672;2023-07-24T01:05:25;18.80;99.90
9802;DHT22;4940;50.900;4.672;2023-07-24T01:07:52;18.80;99.90
9802;DHT22;4940;50.900;4.672;2023-07-24T01:10:19;18.80;99.90
9802;DHT22;4940;50.900;4.672;2023-07-24T01:12:52;18.80;99.90
9802;DHT22;4940;50.900;4.672;2023-07-24T01:15:27;18.80;99.90
9802;DHT22;4940;50.900;4.672;2023-07-24T01:17:59;18.80;99.90
9802;DHT22;4940;50.900;4.672;2023-07-24T01:20:28;18.80;99.90
9802;DHT22;4940;50.900;4.672;2023-07-24T01:23:11;18.80;99.90
9802;DHT22;4940;50.900;4.672;2023-07-24T01:25:52;18.80;99.90
9802;DHT22;4940;50.900;4.672;2023-07-24T01:28:20;18.80;99.90
9802;DHT22;4940;50.900;4.672;2023-07-24T01:30:47;18.80;99.90
9802;DHT22;4940;50.900;4.672;2023-07-24T01:33:14;18.80;99.90
9802;DHT22;4940;50.900;4.672;2023-07-24T01:35:42;18.80;99.90
9802;DHT22;4940;50.900;4.672;2023-07-24T01:38:11;18.80;99.90
9802;DHT22;4940;50.900;4.672;2023-07-24T01:40:39;18.80;99.90
9802;DHT22;4940;50.900;4.672;2023-07-24T01:43:08;18.80;99.90
9802;DHT22;4940;50.900;4.672;2023-07-24T01:45:35;18.80;99.90
9802;DHT22;4940;50.900;4.672;2023-07-24T01:48:04;18.70;99.90
9802;DHT22;4940;50.900;4.672;2023-07-24T01:50:31;18.80;99.90
9802;DHT22;4940;50.900;4.672;2023-07-24T01:52:59;18.80;99.90
9802;DHT22;4940;50.900;4.672;2023-07-24T01:55:26;18.80;99.90
9802;DHT22;4940;50.900;4.672;2023-07-24T01:57:53;18.80;99.90
9802;DHT22;4940;50.900;4.672;2023-07-24T02:00:22;18.70;99.90
9802;DHT22;4940;50.900;4.672;2023-07-24T02:02:49;18.70;99.90
9802;DHT22;4940;50.900;4.672;2023-07-24T02:05:16;18.70;99.90
9802;DHT22;4940;50.900;4.672;2023-07-24T02:07:44;18.70;99.90
9802;DHT22;4940;50.900;4.672;2023-07-24T02:10:11;18.70;99.90
9802;DHT22;4940;50.900;4.672;2023-07-24T02:12:38;18.70;99.90
9802;DHT22;4940;50.900;4.672;2023-07-24T02:15:06;18.70;99.90
9802;DHT22;4940;50.900;4.672;2023-07-24T02:17:35;18.70;99.90
9802;DHT22;4940;50.900;4.672;2023-07-24T02:20:03;18.70;99.90
9802;DHT22;4940;50.900;4.672;2023-07-24T02:22:31;18.70;99.90
9802;DHT22;4940;50.900;4.672;2023-07-24T02:24:58;18.70;99.90
9802;DHT22;4940;50.900;4.672;2023-07-24T02:27:26;18.60;99.90
9802;DHT22;4940;50.900;4.672;2023-07-24T02:29:54;18.60;99.90
9802;DHT22;4940;50.900;4.672;2023-07-24T02:32:21;18.60;99.90
9802;DHT22;4940;50.900;4.672;2023-07-24T02:34:51;18.60;99.90
9802;DHT22;4940;50.900;4.672;2023-07-24T02:37:18;18.60;99.90
9802;DHT22;4940;50.900;4.672;2023-07-24T02:39:46;18.60;99.90
9802;DHT22;4940;50.900;4.672;2023-07-24T02:42:13;18.60;99.90
9802;DHT22;4940;50.900;4.672;2023-07-24T02:44:41;18.60;99.90
9802;DHT22;4940;50.900;4.672;2023-07-24T02:47:08;18.60;99.90
9802;DHT22;4940;50.900;4.672;2023-07-24T02:49:35;18.60;99.90
9802;DHT22;4940;50.900;4.672;2023-07-24T02:52:04;18.60;99.90
9802;DHT22;4940;50.900;4.672;2023-07-24T02:54:32;18.60;99.90
9802;DHT22;4940;50.900;4.672;2023-07-24T02:56:59;18.60;99.90
9802;DHT22;4940;50.900;4.672;2023-07-24T02:59:27;18.60;99.90
9802;DHT22;4940;50.900;4.672;2023-07-24T03:01:54;18.60;99.90
9802;DHT22;4940;50.900;4.672;2023-07-24T03:04:22;18.60;99.90
9802;DHT22;4940;50.900;4.672;2023-07-24T03:06:49;18.80;99.90
9802;DHT22;4940;50.900;4.672;2023-07-24T03:09:17;18.60;99.90
9802;DHT22;4940;50.900;4.672;2023-07-24T03:11:45;18.60;99.90
9802;DHT22;4940;50.900;4.672;2023-07-24T03:14:12;18.60;99.90
9802;DHT22;4940;50.900;4.672;2023-07-24T03:16:39;18.60;99.90
9802;DHT22;4940;50.900;4.672;2023-07-24T03:19:07;18.60;99.90
9802;DHT22;4940;50.900;4.672;2023-07-24T03:21:34;18.60;99.90
9802;DHT22;4940;50.900;4.672;2023-07-24T03:24:02;18.60;99.90
9802;DHT22;4940;50.900;4.672;2023-07-24T03:26:30;18.60;99.90
9802;DHT22;4940;50.900;4.672;2023-07-24T03:33:51;18.60;99.90
9802;DHT22;4940;50.900;4.672;2023-07-24T03:43:42;18.40;99.90
9802;DHT22;4940;50.900;4.672;2023-07-24T03:46:09;18.40;99.90
9802;DHT22;4940;50.900;4.672;2023-07-24T03:48:37;18.30;99.90
9802;DHT22;4940;50.900;4.672;2023-07-24T03:56:00;18.20;99.90
9802;DHT22;4940;50.900;4.672;2023-07-24T03:58:27;18.20;99.90
9802;DHT22;4940;50.900;4.672;2023-07-24T04:00:56;18.20;99.90
9802;DHT22;4940;50.900;4.672;2023-07-24T04:03:23;18.20;99.90
9802;DHT22;4940;50.900;4.672;2023-07-24T04:05:51;18.10;99.90
9802;DHT22;4940;50.900;4.672;2023-07-24T04:08:18;18.10;99.90
9802;DHT22;4940;50.900;4.672;2023-07-24T04:10:45;18.10;99.90
9802;DHT22;4940;50.900;4.672;2023-07-24T04:13:12;18.00;99.90
9802;DHT22;4940;50.900;4.672;2023-07-24T04:15:40;18.10;99.90
9802;DHT22;4940;50.900;4.672;2023-07-24T04:18:09;18.10;99.90
9802;DHT22;4940;50.900;4.672;2023-07-24T04:20:37;18.10;99.90
9802;DHT22;4940;50.900;4.672;2023-07-24T04:23:04;18.10;99.90
9802;DHT22;4940;50.900;4.672;2023-07-24T04:25:31;18.10;99.90
9802;DHT22;4940;50.900;4.672;2023-07-24T04:27:59;18.00;99.90
9802;DHT22;4940;50.900;4.672;2023-07-24T04:30:26;18.00;99.90
9802;DHT22;4940;50.900;4.672;2023-07-24T04:32:53;18.00;99.90
9802;DHT22;4940;50.900;4.672;2023-07-24T04:40:17;18.00;99.90
9802;DHT22;4940;50.900;4.672;2023-07-24T04:42:45;18.00;99.90
9802;DHT22;4940;50.900;4.672;2023-07-24T04:45:12;18.00;99.90
9802;DHT22;4940;50.900;4.672;2023-07-24T04:47:39;18.00;99.90
9802;DHT22;4940;50.900;4.672;2023-07-24T04:50:08;18.00;99.90
9802;DHT22;4940;50.900;4.672;2023-07-24T04:52:36;18.10;99.90
9802;DHT22;4940;50.900;4.672;2023-07-24T04:55:04;18.10;99.90
9802;DHT22;4940;50.900;4.672;2023-07-24T04:57:32;21.10;99.90
9802;DHT22;4940;50.900;4.672;2023-07-24T04:59:59;18.10;99.90
9802;DHT22;4940;50.900;4.672;2023-07-24T05:02:26;18.20;99.90
9802;DHT22;4940;50.900;4.672;2023-07-24T05:04:54;18.20;99.90
9802;DHT22;4940;50.900;4.672;2023-07-24T05:07:21;18.20;99.90
9802;DHT22;4940;50.900;4.672;2023-07-24T05:09:50;18.20;99.90
9802;DHT22;4940;50.900;4.672;2023-07-24T05:12:17;18.20;99.90
9802;DHT22;4940;50.900;4.672;2023-07-24T05:14:44;18.20;99.90
9802;DHT22;4940;50.900;4.672;2023-07-24T05:17:12;18.20;99.90
9802;DHT22;4940;50.900;4.672;2023-07-24T05:19:39;18.20;99.90
9802;DHT22;4940;50.900;4.672;2023-07-24T05:22:06;18.20;99.90
9802;DHT22;4940;50.900;4.672;2023-07-24T05:24:36;18.20;99.90
9802;DHT22;4940;50.900;4.672;2023-07-24T05:27:05;18.20;99.90
9802;DHT22;4940;50.900;4.672;2023-07-24T05:29:32;18.30;99.90
9802;DHT22;4940;50.900;4.672;2023-07-24T05:31:59;18.30;99.90
9802;DHT22;4940;50.900;4.672;2023-07-24T05:34:27;18.30;99.90
9802;DHT22;4940;50.900;4.672;2023-07-24T05:36:54;18.30;99.90
9802;DHT22;4940;50.900;4.672;2023-07-24T05:39:22;18.40;99.90
9802;DHT22;4940;50.900;4.672;2023-07-24T05:41:49;18.40;99.90
9802;DHT22;4940;50.900;4.672;2023-07-24T05:44:18;18.40;99.90
9802;DHT22;4940;50.900;4.672;2023-07-24T05:46:45;18.40;99.90
9802;DHT22;4940;50.900;4.672;2023-07-24T05:49:12;18.50;99.90
9802;DHT22;4940;50.900;4.672;2023-07-24T05:51:39;18.50;99.90
9802;DHT22;4940;50.900;4.672;2023-07-24T05:54:07;18.50;99.90
9802;DHT22;4940;50.900;4.672;2023-07-24T05:56:34;18.60;99.90
9802;DHT22;4940;50.900;4.672;2023-07-24T05:59:01;18.70;99.90
9802;DHT22;4940;50.900;4.672;2023-07-24T06:01:30;18.70;99.90
9802;DHT22;4940;50.900;4.672;2023-07-24T06:03:57;18.70;99.90
9802;DHT22;4940;50.900;4.672;2023-07-24T06:08:53;18.80;99.90
9802;DHT22;4940;50.900;4.672;2023-07-24T06:11:21;18.80;99.90
9802;DHT22;4940;50.900;4.672;2023-07-24T06:13:48;18.80;99.90
9802;DHT22;4940;50.900;4.672;2023-07-24T06:16:16;18.80;99.90
9802;DHT22;4940;50.900;4.672;2023-07-24T06:18:44;18.70;99.90
9802;DHT22;4940;50.900;4.672;2023-07-24T06:21:12;19.30;99.90
9802;DHT22;4940;50.900;4.672;2023-07-24T06:23:39;19.80;99.90
9802;DHT22;4940;50.900;4.672;2023-07-24T06:26:06;20.30;99.90
9802;DHT22;4940;50.900;4.672;2023-07-24T06:28:34;20.50;99.90
9802;DHT22;4940;50.900;4.672;2023-07-24T06:31:01;20.90;99.90
9802;DHT22;4940;50.900;4.672;2023-07-24T06:33:28;21.00;99.90
9802;DHT22;4940;50.900;4.672;2023-07-24T06:35:57;21.00;99.90
9802;DHT22;4940;50.900;4.672;2023-07-24T06:38:24;21.10;99.90
9802;DHT22;4940;50.900;4.672;2023-07-24T06:40:52;18.80;99.90
9802;DHT22;4940;50.900;4.672;2023-07-24T06:43:19;21.70;99.90
9802;DHT22;4940;50.900;4.672;2023-07-24T06:45:46;22.20;99.90
9802;DHT22;4940;50.900;4.672;2023-07-24T06:48:13;22.70;99.90
9802;DHT22;4940;50.900;4.672;2023-07-24T06:50:41;23.10;99.90
9802;DHT22;4940;50.900;4.672;2023-07-24T06:53:09;23.20;99.90
9802;DHT22;4940;50.900;4.672;2023-07-24T06:55:36;23.30;99.90
9802;DHT22;4940;50.900;4.672;2023-07-24T06:58:04;23.30;99.90
9802;DHT22;4940;50.900;4.672;2023-07-24T07:00:31;23.30;99.90
9802;DHT22;4940;50.900;4.672;2023-07-24T07:02:59;23.90;99.90
9802;DHT22;4940;50.900;4.672;2023-07-24T07:05:26;24.40;99.90
9802;DHT22;4940;50.900;4.672;2023-07-24T07:07:53;24.40;99.90
9802;DHT22;4940;50.900;4.672;2023-07-24T07:10:22;24.90;99.90
9802;DHT22;4940;50.900;4.672;2023-07-24T07:12:50;25.70;99.90
9802;DHT22;4940;50.900;4.672;2023-07-24T07:15:17;26.60;99.90
9802;DHT22;4940;50.900;4.672;2023-07-24T07:17:45;26.80;99.90
9802;DHT22;4940;50.900;4.672;2023-07-24T07:20:12;27.50;99.90
9802;DHT22;4940;50.900;4.672;2023-07-24T07:22:39;27.70;99.90
9802;DHT22;4940;50.900;4.672;2023-07-24T07:25:07;31.10;99.90
9802;DHT22;4940;50.900;4.672;2023-07-24T07:27:35;27.30;99.90
9802;DHT22;4940;50.900;4.672;2023-07-24T07:30:03;27.00;99.90
9802;DHT22;4940;50.900;4.672;2023-07-24T07:32:30;26.50;99.90
9802;DHT22;4940;50.900;4.672;2023-07-24T07:34:59;26.10;99.90
9802;DHT22;4940;50.900;4.672;2023-07-24T07:37:26;26.20;99.90
9802;DHT22;4940;50.900;4.672;2023-07-24T07:39:53;25.40;99.90
9802;DHT22;4940;50.900;4.672;2023-07-24T07:42:21;25.20;99.90
9802;DHT22;4940;50.900;4.672;2023-07-24T07:44:49;24.90;99.90
9802;DHT22;4940;50.900;4.672;2023-07-24T07:47:17;24.60;99.90
9802;DHT22;4940;50.900;4.672;2023-07-24T07:49:44;24.40;99.90
9802;DHT22;4940;50.900;4.672;2023-07-24T07:52:11;24.20;99.90
9802;DHT22;4940;50.900;4.672;2023-07-24T07:54:46;24.00;99.90
9802;DHT22;4940;50.900;4.672;2023-07-24T07:57:13;23.80;99.90
9802;DHT22;4940;50.900;4.672;2023-07-24T07:59:40;23.80;99.90
9802;DHT22;4940;50.900;4.672;2023-07-24T08:02:09;23.60;99.90
9802;DHT22;4940;50.900;4.672;2023-07-24T08:04:36;23.50;99.90
9802;DHT22;4940;50.900;4.672;2023-07-24T08:07:04;23.40;99.90
9802;DHT22;4940;50.900;4.672;2023-07-24T08:09:31;23.50;99.90
9802;DHT22;4940;50.900;4.672;2023-07-24T08:11:59;23.50;99.90
9802;DHT22;4940;50.900;4.672;2023-07-24T08:14:27;23.60;99.90
9802;DHT22;4940;50.900;4.672;2023-07-24T08:16:54;23.60;99.90
9802;DHT22;4940;50.900;4.672;2023-07-24T08:19:22;23.50;99.90
9802;DHT22;4940;50.900;4.672;2023-07-24T08:24:17;23.70;99.90
9802;DHT22;4940;50.900;4.672;2023-07-24T08:26:44;23.70;99.90
9802;DHT22;4940;50.900;4.672;2023-07-24T08:29:12;23.70;99.90
9802;DHT22;4940;50.900;4.672;2023-07-24T08:31:40;23.90;99.90
9802;DHT22;4940;50.900;4.672;2023-07-24T08:34:07;23.90;99.90
9802;DHT22;4940;50.900;4.672;2023-07-24T08:36:35;24.10;99.90
9802;DHT22;4940;50.900;4.672;2023-07-24T08:39:03;24.30;99.90
9802;DHT22;4940;50.900;4.672;2023-07-24T08:41:30;24.40;99.90
9802;DHT22;4940;50.900;4.672;2023-07-24T08:44:00;24.40;99.90
9802;DHT22;4940;50.900;4.672;2023-07-24T08:46:28;24.40;99.90
9802;DHT22;4940;50.900;4.672;2023-07-24T08:48:56;20.90;99.90
9802;DHT22;4940;50.900;4.672;2023-07-24T08:51:24;24.10;99.90
9802;DHT22;4940;50.900;4.672;2023-07-24T08:53:53;23.90;99.90
9802;DHT22;4940;50.900;4.672;2023-07-24T08:56:20;23.70;99.90
9802;DHT22;4940;50.900;4.672;2023-07-24T09:01:15;23.50;99.90
9802;DHT22;4940;50.900;4.672;2023-07-24T09:03:43;23.30;99.90
9802;DHT22;4940;50.900;4.672;2023-07-24T09:06:10;23.00;99.90
9802;DHT22;4940;50.900;4.672;2023-07-24T09:08:39;22.80;99.90
9802;DHT22;4940;50.900;4.672;2023-07-24T09:11:09;22.60;99.90
9802;DHT22;4940;50.900;4.672;2023-07-24T09:13:38;22.40;99.90
9802;DHT22;4940;50.900;4.672;2023-07-24T09:16:05;22.00;99.90
9802;DHT22;4940;50.900;4.672;2023-07-24T09:18:39;22.00;99.90
9802;DHT22;4940;50.900;4.672;2023-07-24T09:21:07;21.80;99.90
9802;DHT22;4940;50.900;4.672;2023-07-24T09:26:05;21.60;99.90
9802;DHT22;4940;50.900;4.672;2023-07-24T09:28:35;21.50;99.90
9802;DHT22;4940;50.900;4.672;2023-07-24T09:31:03;21.40;99.90
9802;DHT22;4940;50.900;4.672;2023-07-24T09:33:37;21.30;99.90
9802;DHT22;4940;50.900;4.672;2023-07-24T09:36:06;21.20;99.90
9802;DHT22;4940;50.900;4.672;2023-07-24T09:38:34;21.10;99.90
9802;DHT22;4940;50.900;4.672;2023-07-24T09:41:02;21.00;99.90
9802;DHT22;4940;50.900;4.672;2023-07-24T09:43:30;20.90;99.90
9802;DHT22;4940;50.900;4.672;2023-07-24T09:45:59;20.80;99.90
9802;DHT22;4940;50.900;4.672;2023-07-24T09:48:27;20.70;99.90
9802;DHT22;4940;50.900;4.672;2023-07-24T09:50:55;20.50;99.90
9802;DHT22;4940;50.900;4.672;2023-07-24T09:53:29;20.50;99.90
9802;DHT22;4940;50.900;4.672;2023-07-24T09:56:02;20.40;99.90
9802;DHT22;4940;50.900;4.672;2023-07-24T09:58:30;20.40;99.90
9802;DHT22;4940;50.900;4.672;2023-07-24T10:01:02;20.40;99.90
9802;DHT22;4940;50.900;4.672;2023-07-24T10:03:33;20.40;99.90
9802;DHT22;4940;50.900;4.672;2023-07-24T10:06:01;20.50;99.90
9802;DHT22;4940;50.900;4.672;2023-07-24T10:10:56;20.90;99.90
9802;DHT22;4940;50.900;4.672;2023-07-24T10:13:25;21.00;99.90
9802;DHT22;4940;50.900;4.672;2023-07-24T10:15:53;21.40;99.90
9802;DHT22;4940;50.900;4.672;2023-07-24T10:18:28;21.70;99.90
9802;DHT22;4940;50.900;4.672;2023-07-24T10:21:26;22.10;99.90
9802;DHT22;4940;50.900;4.672;2023-07-24T10:26:25;22.30;99.90
9802;DHT22;4940;50.900;4.672;2023-07-24T10:28:53;22.30;99.90
9802;DHT22;4940;50.900;4.672;2023-07-24T10:31:22;22.30;99.90
9802;DHT22;4940;50.900;4.672;2023-07-24T10:33:53;22.40;99.90
9802;DHT22;4940;50.900;4.672;2023-07-24T10:36:21;22.40;99.90
9802;DHT22;4940;50.900;4.672;2023-07-24T10:38:53;22.40;99.90
9802;DHT22;4940;50.900;4.672;2023-07-24T10:41:21;22.40;99.90
9802;DHT22;4940;50.900;4.672;2023-07-24T10:43:52;22.40;99.90
9802;DHT22;4940;50.900;4.672;2023-07-24T10:46:20;22.40;99.90
9802;DHT22;4940;50.900;4.672;2023-07-24T10:48:50;22.50;99.90
9802;DHT22;4940;50.900;4.672;2023-07-24T10:51:21;22.50;99.90
9802;DHT22;4940;50.900;4.672;2023-07-24T10:53:49;22.60;99.90
9802;DHT22;4940;50.900;4.672;2023-07-24T10:58:46;22.90;99.90
9802;DHT22;4940;50.900;4.672;2023-07-24T11:01:14;23.10;99.90
9802;DHT22;4940;50.900;4.672;2023-07-24T11:03:42;23.10;99.90
9802;DHT22;4940;50.900;4.672;2023-07-24T11:06:13;23.20;99.90
9802;DHT22;4940;50.900;4.672;2023-07-24T11:08:51;23.40;99.90
9802;DHT22;4940;50.900;4.672;2023-07-24T11:11:19;23.20;99.90
9802;DHT22;4940;50.900;4.672;2023-07-24T11:16:14;23.20;99.90
9802;DHT22;4940;50.900;4.672;2023-07-24T11:18:52;23.10;99.90
9802;DHT22;4940;50.900;4.672;2023-07-24T11:21:20;23.10;99.90
9802;DHT22;4940;50.900;4.672;2023-07-24T11:23:50;23.20;99.90
9802;DHT22;4940;50.900;4.672;2023-07-24T11:26:19;23.30;99.90
9802;DHT22;4940;50.900;4.672;2023-07-24T11:28:51;23.40;99.90
9802;DHT22;4940;50.900;4.672;2023-07-24T11:31:19;23.50;99.90
9802;DHT22;4940;50.900;4.672;2023-07-24T11:33:47;23.40;99.90
9802;DHT22;4940;50.900;4.672;2023-07-24T11:36:16;23.40;99.90
9802;DHT22;4940;50.900;4.672;2023-07-24T11:38:45;23.30;99.90
9802;DHT22;4940;50.900;4.672;2023-07-24T11:41:15;23.10;99.90
9802;DHT22;4940;50.900;4.672;2023-07-24T11:43:46;23.00;99.90
9802;DHT22;4940;50.900;4.672;2023-07-24T11:46:23;22.80;99.90
9802;DHT22;4940;50.900;4.672;2023-07-24T11:48:50;22.60;99.90
9802;DHT22;4940;50.900;4.672;2023-07-24T11:51:19;22.70;99.90
9802;DHT22;4940;50.900;4.672;2023-07-24T11:53:47;22.70;99.90
9802;DHT22;4940;50.900;4.672;2023-07-24T11:56:17;22.70;99.90
9802;DHT22;4940;50.900;4.672;2023-07-24T11:58:44;22.80;99.90
9802;DHT22;4940;50.900;4.672;2023-07-24T12:01:12;22.80;99.90
9802;DHT22;4940;50.900;4.672;2023-07-24T12:03:40;23.10;99.90
9802;DHT22;4940;50.900;4.672;2023-07-24T12:06:14;23.10;99.90
9802;DHT22;4940;50.900;4.672;2023-07-24T12:08:42;23.20;99.90
9802;DHT22;4940;50.900;4.672;2023-07-24T12:11:17;23.30;99.90
9802;DHT22;4940;50.900;4.672;2023-07-24T12:13:45;23.30;99.90
9802;DHT22;4940;50.900;4.672;2023-07-24T12:16:12;23.40;99.90
9802;DHT22;4940;50.900;4.672;2023-07-24T12:18:40;23.50;99.90
9802;DHT22;4940;50.900;4.672;2023-07-24T12:21:07;23.60;99.90
9802;DHT22;4940;50.900;4.672;2023-07-24T12:23:34;23.60;99.90
9802;DHT22;4940;50.900;4.672;2023-07-24T12:30:57;24.10;99.90
9802;DHT22;4940;50.900;4.672;2023-07-24T12:33:24;24.20;99.90
9802;DHT22;4940;50.900;4.672;2023-07-24T12:35:52;24.20;99.90
9802;DHT22;4940;50.900;4.672;2023-07-24T12:38:20;24.10;99.90
9802;DHT22;4940;50.900;4.672;2023-07-24T12:40:47;24.70;99.90
9802;DHT22;4940;50.900;4.672;2023-07-24T12:43:15;24.20;99.90
9802;DHT22;4940;50.900;4.672;2023-07-24T12:45:43;24.20;99.90
9802;DHT22;4940;50.900;4.672;2023-07-24T12:48:11;24.20;99.90
9802;DHT22;4940;50.900;4.672;2023-07-24T12:53:05;24.20;99.90
9802;DHT22;4940;50.900;4.672;2023-07-24T12:55:32;24.10;99.90
9802;DHT22;4940;50.900;4.672;2023-07-24T12:58:00;24.10;99.90
9802;DHT22;4940;50.900;4.672;2023-07-24T13:00:29;24.10;99.90
9802;DHT22;4940;50.900;4.672;2023-07-24T13:02:58;24.10;99.90
9802;DHT22;4940;50.900;4.672;2023-07-24T13:05:26;24.10;99.90
9802;DHT22;4940;50.900;4.672;2023-07-24T13:07:53;24.20;99.90
9802;DHT22;4940;50.900;4.672;2023-07-24T13:10:20;24.40;99.90
9802;DHT22;4940;50.900;4.672;2023-07-24T13:12:48;24.50;99.90
9802;DHT22;4940;50.900;4.672;2023-07-24T13:15:15;24.60;99.90
9802;DHT22;4940;50.900;4.672;2023-07-24T13:17:43;24.60;99.90
9802;DHT22;4940;50.900;4.672;2023-07-24T13:20:12;24.70;99.90
9802;DHT22;4940;50.900;4.672;2023-07-24T13:22:39;24.70;99.90
9802;DHT22;4940;50.900;4.672;2023-07-24T13:27:36;24.30;99.90
9802;DHT22;4940;50.900;4.672;2023-07-24T13:30:04;24.80;99.90
9802;DHT22;4940;50.900;4.672;2023-07-24T13:32:31;24.80;99.90
9802;DHT22;4940;50.900;4.672;2023-07-24T13:34:59;24.80;99.90
9802;DHT22;4940;50.900;4.672;2023-07-24T13:37:27;24.80;99.90
9802;DHT22;4940;50.900;4.672;2023-07-24T13:39:54;24.80;99.90
9802;DHT22;4940;50.900;4.672;2023-07-24T13:42:22;24.80;99.90
9802;DHT22;4940;50.900;4.672;2023-07-24T13:44:49;24.80;99.90
9802;DHT22;4940;50.900;4.672;2023-07-24T13:47:17;24.80;99.90
9802;DHT22;4940;50.900;4.672;2023-07-24T13:49:47;25.50;99.90
9802;DHT22;4940;50.900;4.672;2023-07-24T13:52:14;24.80;99.90
9802;DHT22;4940;50.900;4.672;2023-07-24T13:54:43;24.90;99.90
9802;DHT22;4940;50.900;4.672;2023-07-24T13:57:10;22.50;99.90
9802;DHT22;4940;50.900;4.672;2023-07-24T13:59:37;24.80;99.90
9802;DHT22;4940;50.900;4.672;2023-07-24T14:02:05;24.80;99.90
9802;DHT22;4940;50.900;4.672;2023-07-24T14:04:33;24.80;99.90
9802;DHT22;4940;50.900;4.672;2023-07-24T14:07:00;24.70;99.90
9802;DHT22;4940;50.900;4.672;2023-07-24T14:09:27;24.80;99.90
9802;DHT22;4940;50.900;4.672;2023-07-24T14:11:58;24.80;99.90
9802;DHT22;4940;50.900;4.672;2023-07-24T14:14:26;24.90;99.90
9802;DHT22;4940;50.900;4.672;2023-07-24T14:19:21;24.90;99.90
9802;DHT22;4940;50.900;4.672;2023-07-24T14:21:50;24.90;99.90
9802;DHT22;4940;50.900;4.672;2023-07-24T14:24:17;24.80;99.90
9802;DHT22;4940;50.900;4.672;2023-07-24T14:26:45;24.80;99.90
9802;DHT22;4940;50.900;4.672;2023-07-24T14:29:13;24.70;99.90
9802;DHT22;4940;50.900;4.672;2023-07-24T14:34:10;24.70;99.90
9802;DHT22;4940;50.900;4.672;2023-07-24T14:39:06;24.80;99.90
9802;DHT22;4940;50.900;4.672;2023-07-24T14:41:33;24.80;99.90
9802;DHT22;4940;50.900;4.672;2023-07-24T14:44:01;24.70;99.90
9802;DHT22;4940;50.900;4.672;2023-07-24T14:46:30;24.70;99.90
9802;DHT22;4940;50.900;4.672;2023-07-24T14:51:25;24.70;99.90
9802;DHT22;4940;50.900;4.672;2023-07-24T14:53:52;24.60;99.90
9802;DHT22;4940;50.900;4.672;2023-07-24T14:56:19;20.80;99.90
9802;DHT22;4940;50.900;4.672;2023-07-24T14:58:47;24.50;99.90
9802;DHT22;4940;50.900;4.672;2023-07-24T15:01:15;24.20;99.90
9802;DHT22;4940;50.900;4.672;2023-07-24T15:03:44;24.00;99.90
9802;DHT22;4940;50.900;4.672;2023-07-24T15:06:11;23.70;99.90
9802;DHT22;4940;50.900;4.672;2023-07-24T15:08:39;23.40;99.90
9802;DHT22;4940;50.900;4.672;2023-07-24T15:11:06;23.20;99.90
9802;DHT22;4940;50.900;4.672;2023-07-24T15:16:01;22.80;99.90
9802;DHT22;4940;50.900;4.672;2023-07-24T15:18:28;22.80;99.90
9802;DHT22;4940;50.900;4.672;2023-07-24T15:20:57;22.70;99.90
9802;DHT22;4940;50.900;4.672;2023-07-24T15:23:24;22.60;99.90
9802;DHT22;4940;50.900;4.672;2023-07-24T15:30:48;22.30;99.90
9802;DHT22;4940;50.900;4.672;2023-07-24T15:33:17;22.10;99.90
9802;DHT22;4940;50.900;4.672;2023-07-24T15:38:13;21.60;99.90
9802;DHT22;4940;50.900;4.672;2023-07-24T15:40:42;21.30;99.90
9802;DHT22;4940;50.900;4.672;2023-07-24T15:43:11;21.10;99.90
9802;DHT22;4940;50.900;4.672;2023-07-24T15:48:07;20.80;99.90
9802;DHT22;4940;50.900;4.672;2023-07-24T15:50:35;20.70;99.90
9802;DHT22;4940;50.900;4.672;2023-07-24T15:53:03;20.60;99.90
9802;DHT22;4940;50.900;4.672;2023-07-24T15:55:31;20.60;99.90
9802;DHT22;4940;50.900;4.672;2023-07-24T16:00:26;20.60;99.90
9802;DHT22;4940;50.900;4.672;2023-07-24T16:02:53;20.70;99.90
9802;DHT22;4940;50.900;4.672;2023-07-24T16:05:21;20.80;99.90
9802;DHT22;4940;50.900;4.672;2023-07-24T16:07:49;20.90;99.90
9802;DHT22;4940;50.900;4.672;2023-07-24T16:15:12;21.10;99.90
9802;DHT22;4940;50.900;4.672;2023-07-24T16:20:09;18.50;99.90
9802;DHT22;4940;50.900;4.672;2023-07-24T16:25:08;21.30;99.90
9802;DHT22;4940;50.900;4.672;2023-07-24T16:27:39;21.30;99.90
9802;DHT22;4940;50.900;4.672;2023-07-24T16:32:42;21.40;99.90
9802;DHT22;4940;50.900;4.672;2023-07-24T16:35:11;21.30;99.90
9802;DHT22;4940;50.900;4.672;2023-07-24T16:37:40;21.30;99.90
9802;DHT22;4940;50.900;4.672;2023-07-24T16:47:55;20.80;99.90
9802;DHT22;4940;50.900;4.672;2023-07-24T16:50:23;20.70;99.90
9802;DHT22;4940;50.900;4.672;2023-07-24T16:57:48;20.20;99.90
9802;DHT22;4940;50.900;4.672;2023-07-24T17:00:20;20.10;99.90
9802;DHT22;4940;50.900;4.672;2023-07-24T17:02:49;20.00;99.90
9802;DHT22;4940;50.900;4.672;2023-07-24T17:05:16;20.00;99.90
9802;DHT22;4940;50.900;4.672;2023-07-24T17:07:44;19.90;99.90
9802;DHT22;4940;50.900;4.672;2023-07-24T17:12:45;19.90;99.90
9802;DHT22;4940;50.900;4.672;2023-07-24T17:22:53;20.10;99.90
9802;DHT22;4940;50.900;4.672;2023-07-24T17:25:21;20.10;99.90
9802;DHT22;4940;50.900;4.672;2023-07-24T17:27:50;19.70;99.90
9802;DHT22;4940;50.900;4.672;2023-07-24T17:30:19;20.20;99.90
9802;DHT22;4940;50.900;4.672;2023-07-24T17:32:50;20.20;99.90
9802;DHT22;4940;50.900;4.672;2023-07-24T17:37:45;20.20;99.90
9802;DHT22;4940;50.900;4.672;2023-07-24T17:42:43;20.10;99.90
9802;DHT22;4940;50.900;4.672;2023-07-24T17:45:13;20.00;99.90
9802;DHT22;4940;50.900;4.672;2023-07-24T17:47:46;20.10;99.90
9802;DHT22;4940;50.900;4.672;2023-07-24T17:50:19;20.10;99.90
9802;DHT22;4940;50.900;4.672;2023-07-24T17:52:50;20.10;99.90
9802;DHT22;4940;50.900;4.672;2023-07-24T18:00:22;19.90;99.90
9802;DHT22;4940;50.900;4.672;2023-07-24T18:02:56;19.70;99.90
9802;DHT22;4940;50.900;4.672;2023-07-24T18:05:24;19.70;99.90
9802;DHT22;4940;50.900;4.672;2023-07-24T18:07:55;19.60;99.90
9802;DHT22;4940;50.900;4.672;2023-07-24T18:10:23;19.50;99.90
9802;DHT22;4940;50.900;4.672;2023-07-24T18:17:49;19.40;99.90